Time;durP1;ratioP1;P1;durP2;ratioP2;P2;SDS_P1;SDS_P2;PMS_P1;PMS_P2;Temp;Humidity;BMP_temperature;BMP_pressure;BME280_temperature;BME280_humidity;BME280_pressure;Samples;Min_cycle;Max_cycle;Signal;HPM_P1;HPM_P2
2024/02/21 00:00:48;;;;;;;9.43;2.73;;;;;;;6.94;72.39;96512.00;5019497;28;20189;-77
2024/02/21 00:03:13;;;;;;;6.50;2.77;;;;;;;6.97;72.66;96512.63;5022045;28;20239;-77
2024/02/21 00:05:38;;;;;;;9.73;2.90;;;;;;;7.09;72.05;96509.22;5023721;28;20186;-77
2024/02/21 00:08:04;;;;;;;6.80;2.50;;;;;;;7.05;72.38;96497.44;5019863;28;20202;-77
2024/02/21 00:10:31;;;;;;;10.87;2.60;;;;;;;7.05;72.18;96502.59;5023119;28;20274;-77
2024/02/21 00:12:57;;;;;;;10.40;2.90;;;;;;;7.14;72.24;96496.00;5004367;28;20210;-78
2024/02/21 00:15:22;;;;;;;11.87;3.37;;;;;;;7.06;72.36;96490.50;5021641;28;20240;-78
2024/02/21 00:17:48;;;;;;;9.37;3.23;;;;;;;7.15;72.27;96489.88;5003120;28;20636;-77
2024/02/21 00:20:13;;;;;;;10.70;2.80;;;;;;;6.94;73.28;96484.41;5021628;28;20179;-78
2024/02/21 00:22:39;;;;;;;10.63;2.50;;;;;;;7.10;72.26;96479.06;5004998;28;20730;-78
2024/02/21 00:25:04;;;;;;;10.50;2.70;;;;;;;7.18;72.34;96484.53;5002044;28;20190;-78
2024/02/21 00:27:31;;;;;;;9.30;2.57;;;;;;;7.22;71.98;96477.41;5022719;28;20194;-77
2024/02/21 00:29:56;;;;;;;9.67;3.10;;;;;;;7.26;71.78;96477.09;5020334;28;20214;-78
2024/02/21 00:32:21;;;;;;;10.60;2.97;;;;;;;7.26;71.86;96476.28;5007341;28;20191;-78
2024/02/21 00:34:47;;;;;;;7.10;2.40;;;;;;;7.20;72.29;96472.34;5015324;28;20214;-78
2024/02/21 00:37:12;;;;;;;9.53;2.67;;;;;;;7.26;71.99;96463.34;5022038;28;20191;-77
2024/02/21 00:39:37;;;;;;;10.30;2.80;;;;;;;7.17;72.11;96458.81;5021282;28;20277;-78
2024/02/21 00:42:03;;;;;;;8.80;2.53;;;;;;;7.19;72.24;96449.19;5012631;28;20191;-78
2024/02/21 00:44:28;;;;;;;8.03;2.47;;;;;;;7.18;72.53;96447.53;5020702;28;20312;-78
2024/02/21 00:46:53;;;;;;;11.53;2.80;;;;;;;7.15;72.60;96450.31;5006674;28;20244;-78
2024/02/21 00:49:19;;;;;;;6.30;2.40;;;;;;;7.07;73.26;96433.63;5019281;28;20197;-78
2024/02/21 00:51:44;;;;;;;6.37;2.63;;;;;;;6.96;73.64;96430.91;5002542;28;20195;-78
2024/02/21 00:54:09;;;;;;;9.03;3.00;;;;;;;6.95;73.78;96439.59;5021187;28;20229;-78
2024/02/21 00:56:35;;;;;;;11.10;2.90;;;;;;;6.89;73.94;96434.00;5020497;28;20567;-78
2024/02/21 00:59:00;;;;;;;9.10;2.43;;;;;;;7.00;73.67;96436.72;5018777;28;20218;-77
2024/02/21 01:01:25;;;;;;;10.10;2.70;;;;;;;6.97;74.05;96421.41;5004566;28;20228;-78
2024/02/21 01:03:53;;;;;;;8.37;3.30;;;;;;;7.04;73.85;96422.66;5020142;28;20206;-78
2024/02/21 01:06:21;;;;;;;7.40;3.10;;;;;;;7.03;73.88;96415.84;5018538;28;20194;-76
2024/02/21 01:08:47;;;;;;;11.47;3.43;;;;;;;6.89;74.11;96410.75;5019858;28;20691;-78
2024/02/21 01:11:13;;;;;;;9.60;2.57;;;;;;;6.82;74.66;96418.94;5020385;28;20628;-78
2024/02/21 01:13:39;;;;;;;5.23;2.30;;;;;;;6.87;74.12;96416.03;5019891;28;20207;-78
2024/02/21 01:16:04;;;;;;;8.17;3.10;;;;;;;6.89;74.12;96403.03;5017333;28;20257;-78
2024/02/21 01:18:29;;;;;;;10.47;3.03;;;;;;;6.98;73.94;96395.50;5001780;28;20195;-77
2024/02/21 01:20:55;;;;;;;10.67;3.00;;;;;;;7.03;73.89;96401.16;5003744;28;20178;-78
2024/02/21 01:23:20;;;;;;;6.47;2.60;;;;;;;6.98;74.08;96392.06;5007505;28;20213;-78
2024/02/21 01:25:45;;;;;;;10.37;2.93;;;;;;;7.07;73.66;96391.47;5021818;28;20183;-78
2024/02/21 01:28:11;;;;;;;7.73;2.90;;;;;;;6.97;74.19;96374.94;5023336;28;20637;-77
2024/02/21 01:30:36;;;;;;;13.90;3.20;;;;;;;7.10;73.44;96378.34;5004301;28;20301;-78
2024/02/21 01:33:01;;;;;;;14.17;4.33;;;;;;;7.05;73.80;96376.06;5015172;28;20219;-79
2024/02/21 01:35:27;;;;;;;11.50;3.20;;;;;;;6.89;74.02;96372.88;5009749;28;20203;-77
2024/02/21 01:37:52;;;;;;;5.60;2.43;;;;;;;6.90;74.21;96377.13;5022882;28;20214;-78
2024/02/21 01:40:17;;;;;;;8.63;2.70;;;;;;;6.79;74.93;96366.69;5018749;28;20273;-78
2024/02/21 01:42:43;;;;;;;10.37;2.47;;;;;;;6.95;74.28;96372.44;5014316;28;20201;-77
2024/02/21 01:45:08;;;;;;;11.90;3.13;;;;;;;6.90;74.99;96366.78;5021757;28;20602;-78
2024/02/21 01:47:34;;;;;;;10.47;3.17;;;;;;;6.84;75.39;96368.97;5020816;28;20676;-78
2024/02/21 01:50:01;;;;;;;6.33;2.70;;;;;;;6.65;76.33;96354.72;5014379;28;20222;-78
2024/02/21 01:52:28;;;;;;;12.90;2.63;;;;;;;6.86;75.89;96356.75;5017815;28;20724;-78
2024/02/21 01:54:53;;;;;;;8.60;2.57;;;;;;;6.81;76.40;96349.34;5021403;28;20194;-77
2024/02/21 01:57:18;;;;;;;10.90;3.03;;;;;;;6.93;76.20;96348.50;5020316;28;20533;-78
2024/02/21 01:59:44;;;;;;;11.17;2.60;;;;;;;6.99;76.25;96339.50;5007388;28;20179;-78
2024/02/21 02:02:09;;;;;;;9.00;3.13;;;;;;;6.87;77.21;96338.59;5001183;28;20245;-79
2024/02/21 02:04:37;;;;;;;7.70;3.23;;;;;;;6.91;77.35;96329.72;5004460;28;20210;-78
2024/02/21 02:07:03;;;;;;;10.30;3.20;;;;;;;6.70;78.55;96332.00;5011967;28;20187;-78
2024/02/21 02:09:29;;;;;;;12.47;3.47;;;;;;;6.80;78.71;96325.28;5002576;28;20270;-78
2024/02/21 02:11:54;;;;;;;8.07;3.30;;;;;;;6.80;79.24;96316.69;5003991;28;20840;-78
2024/02/21 02:14:20;;;;;;;8.00;3.07;;;;;;;6.73;79.27;96303.41;5018022;28;20199;-78
2024/02/21 02:16:47;;;;;;;10.57;3.17;;;;;;;6.61;79.87;96300.81;5001083;28;20187;-78
2024/02/21 02:19:13;;;;;;;16.10;3.70;;;;;;;6.48;80.65;96283.59;5018501;28;20219;-78
2024/02/21 02:21:40;;;;;;;12.57;3.83;;;;;;;6.51;80.49;96280.81;5003306;28;20609;-78
2024/02/21 02:24:06;;;;;;;10.13;3.07;;;;;;;6.28;81.63;96319.44;5013008;28;20214;-78
2024/02/21 02:26:31;;;;;;;9.10;3.13;;;;;;;6.05;82.66;96326.94;5019401;28;20727;-79
2024/02/21 02:28:56;;;;;;;10.27;3.73;;;;;;;5.76;83.96;96315.09;5024774;28;20190;-78
2024/02/21 02:31:22;;;;;;;10.13;3.20;;;;;;;6.09;82.52;96301.75;5019498;28;20203;-78
2024/02/21 02:33:48;;;;;;;9.67;3.00;;;;;;;6.05;83.25;96302.91;4999717;28;20230;-78
2024/02/21 02:36:13;;;;;;;7.97;3.10;;;;;;;6.10;83.26;96304.25;5018170;28;20190;-77
2024/02/21 02:38:39;;;;;;;8.20;3.00;;;;;;;5.90;83.72;96315.00;5008349;28;20183;-78
2024/02/21 02:41:04;;;;;;;11.03;3.70;;;;;;;5.78;84.27;96296.00;5017463;28;20222;-78
2024/02/21 02:43:29;;;;;;;6.70;2.80;;;;;;;6.18;82.78;96290.81;4996364;28;20206;-78
2024/02/21 02:45:55;;;;;;;10.10;3.27;;;;;;;6.12;82.70;96296.41;5019890;28;20178;-78
2024/02/21 02:48:21;;;;;;;9.83;3.50;;;;;;;6.08;83.30;96297.53;5001829;28;20182;-78
2024/02/21 02:50:46;;;;;;;7.47;3.40;;;;;;;6.14;83.09;96299.72;5018573;28;20417;-77
2024/02/21 02:53:11;;;;;;;11.03;3.57;;;;;;;6.02;83.44;96292.78;5018771;28;20203;-78
2024/02/21 02:55:37;;;;;;;9.90;3.73;;;;;;;6.14;83.27;96281.66;5021546;28;20187;-78
2024/02/21 02:58:02;;;;;;;13.17;3.67;;;;;;;6.10;83.20;96286.19;4999008;28;20226;-77
2024/02/21 03:00:28;;;;;;;7.87;2.83;;;;;;;6.14;82.84;96279.06;5020866;28;20182;-77
2024/02/21 03:02:54;;;;;;;7.93;3.20;;;;;;;6.06;83.10;96274.44;5019581;28;20214;-78
2024/02/21 03:05:21;;;;;;;8.50;3.30;;;;;;;6.05;82.74;96274.53;5018389;28;20269;-78
2024/02/21 03:07:47;;;;;;;5.93;3.00;;;;;;;6.15;82.61;96260.09;5020071;28;20640;-78
2024/02/21 03:10:13;;;;;;;10.87;3.30;;;;;;;6.07;82.70;96255.44;5018156;28;20206;-78
2024/02/21 03:12:39;;;;;;;8.83;3.33;;;;;;;6.07;83.05;96258.03;5016651;28;20185;-77
2024/02/21 03:15:05;;;;;;;11.67;3.40;;;;;;;5.98;83.34;96266.38;5017275;28;20191;-76
2024/02/21 03:17:31;;;;;;;7.73;3.40;;;;;;;5.99;82.69;96260.28;5011111;28;20179;-76
2024/02/21 03:19:57;;;;;;;10.87;3.30;;;;;;;5.94;83.30;96250.28;5017281;28;20381;-78
2024/02/21 03:22:22;;;;;;;9.37;3.57;;;;;;;5.94;83.27;96247.72;5017492;28;20187;-77
2024/02/21 03:24:48;;;;;;;10.03;2.73;;;;;;;5.91;83.57;96257.38;5016690;28;20202;-77
2024/02/21 03:27:13;;;;;;;13.70;3.93;;;;;;;5.91;83.46;96253.06;5005215;28;20190;-77
2024/02/21 03:29:38;;;;;;;10.10;3.60;;;;;;;5.88;83.66;96255.81;5020299;28;20221;-77
2024/02/21 03:32:04;;;;;;;9.37;3.33;;;;;;;5.87;83.29;96237.88;4997685;28;20226;-77
2024/02/21 03:34:29;;;;;;;9.27;3.00;;;;;;;5.72;84.04;96242.28;5002799;28;20210;-76
2024/02/21 03:36:55;;;;;;;7.73;3.40;;;;;;;5.79;83.89;96228.06;5017462;28;20269;-78
2024/02/21 03:39:21;;;;;;;10.07;3.40;;;;;;;5.82;83.28;96224.47;5019474;28;20187;-78
2024/02/21 03:41:46;;;;;;;11.40;3.80;;;;;;;5.70;83.15;96215.78;5018933;28;20187;-77
2024/02/21 03:44:12;;;;;;;10.23;3.27;;;;;;;5.68;83.69;96233.13;5020257;28;20264;-78
2024/02/21 03:46:37;;;;;;;11.90;3.40;;;;;;;5.65;83.53;96231.56;5005124;28;20281;-77
2024/02/21 03:49:02;;;;;;;8.80;3.07;;;;;;;5.53;84.06;96231.53;5002910;28;20327;-78
2024/02/21 03:51:28;;;;;;;7.53;2.67;;;;;;;5.51;83.65;96226.50;5017481;28;20351;-78
2024/02/21 03:53:53;;;;;;;13.93;3.50;;;;;;;5.53;83.88;96222.06;5017017;28;20242;-77
2024/02/21 03:56:18;;;;;;;7.70;3.20;;;;;;;5.54;83.78;96225.47;5003684;28;20235;-78
2024/02/21 03:58:44;;;;;;;7.87;3.13;;;;;;;5.60;83.85;96214.75;5015231;28;20187;-78
2024/02/21 04:01:09;;;;;;;13.00;2.83;;;;;;;5.58;84.15;96207.13;5015765;28;20674;-77
2024/02/21 04:03:34;;;;;;;7.23;2.83;;;;;;;5.57;83.99;96204.66;5013971;28;20703;-78
2024/02/21 04:06:00;;;;;;;7.47;3.30;;;;;;;5.62;83.83;96202.59;5016945;28;20661;-78
2024/02/21 04:08:25;;;;;;;6.77;2.67;;;;;;;5.58;83.74;96201.16;5017776;28;20792;-78
2024/02/21 04:10:50;;;;;;;5.60;3.40;;;;;;;5.61;83.99;96212.06;5006939;28;20210;-77
2024/02/21 04:13:16;;;;;;;9.53;3.20;;;;;;;5.63;83.54;96205.06;5016005;28;20578;-78
2024/02/21 04:15:41;;;;;;;8.60;3.20;;;;;;;5.55;83.74;96211.66;5003569;28;20195;-78
2024/02/21 04:18:06;;;;;;;8.47;3.30;;;;;;;5.49;84.20;96204.34;5000782;28;20183;-77
2024/02/21 04:20:32;;;;;;;11.43;3.57;;;;;;;5.55;84.13;96212.47;5018758;28;20211;-78
2024/02/21 04:22:57;;;;;;;6.20;3.20;;;;;;;5.50;84.03;96217.13;5014615;28;20195;-77
2024/02/21 04:25:23;;;;;;;9.53;3.47;;;;;;;5.58;83.54;96214.03;5005487;28;20197;-78
2024/02/21 04:27:48;;;;;;;9.70;2.57;;;;;;;5.57;83.65;96215.78;5017365;28;20262;-78
2024/02/21 04:30:14;;;;;;;8.70;2.93;;;;;;;5.46;84.12;96212.25;5019127;28;20204;-79
2024/02/21 04:32:40;;;;;;;9.47;2.87;;;;;;;5.51;83.86;96207.63;5014901;28;20704;-77
2024/02/21 04:35:06;;;;;;;9.00;2.90;;;;;;;5.43;84.38;96208.13;5015748;28;20217;-78
2024/02/21 04:37:32;;;;;;;9.17;3.27;;;;;;;5.30;85.15;96205.53;5019160;28;20265;-78
2024/02/21 04:39:57;;;;;;;8.73;3.30;;;;;;;5.45;84.30;96195.16;5020096;28;20318;-76
2024/02/21 04:42:22;;;;;;;11.17;3.23;;;;;;;5.37;84.75;96195.63;5002743;28;20536;-78
2024/02/21 04:44:48;;;;;;;11.53;3.43;;;;;;;5.43;83.82;96202.16;5004919;28;20703;-77
2024/02/21 04:47:13;;;;;;;11.20;3.80;;;;;;;5.31;84.51;96199.47;5003747;28;20187;-78
2024/02/21 04:49:39;;;;;;;10.67;3.73;;;;;;;5.38;83.69;96192.97;5021905;28;20186;-78
2024/02/21 04:52:04;;;;;;;9.77;3.20;;;;;;;5.33;83.47;96192.44;5017118;28;20194;-78
2024/02/21 04:54:30;;;;;;;8.17;3.03;;;;;;;5.31;83.57;96202.03;5011395;28;20653;-78
2024/02/21 04:56:55;;;;;;;10.97;3.40;;;;;;;5.24;83.40;96187.91;5020038;28;20662;-78
2024/02/21 04:59:20;;;;;;;6.53;3.23;;;;;;;5.22;83.21;96188.94;5021014;28;20557;-78
2024/02/21 05:01:46;;;;;;;6.10;2.83;;;;;;;5.16;84.05;96179.03;5005974;28;20202;-78
2024/02/21 05:04:11;;;;;;;9.80;3.23;;;;;;;5.13;83.65;96184.38;5017899;28;20211;-77
2024/02/21 05:06:38;;;;;;;6.50;3.20;;;;;;;5.07;84.31;96196.72;5020668;28;20186;-78
2024/02/21 05:09:04;;;;;;;11.07;3.30;;;;;;;4.98;85.29;96191.31;5002754;28;20194;-78
2024/02/21 05:11:30;;;;;;;6.77;3.27;;;;;;;4.99;84.89;96177.53;5014689;28;20206;-76
2024/02/21 05:13:55;;;;;;;10.20;3.40;;;;;;;4.98;84.30;96168.16;5012254;28;20226;-78
2024/02/21 05:16:20;;;;;;;9.63;3.83;;;;;;;5.03;84.42;96155.78;5019826;28;20182;-77
2024/02/21 05:18:46;;;;;;;15.07;3.60;;;;;;;4.93;84.76;96157.31;5017850;28;20179;-78
2024/02/21 05:21:12;;;;;;;5.93;3.33;;;;;;;4.83;85.59;96155.34;5019584;28;20232;-78
2024/02/21 05:23:39;;;;;;;10.43;4.60;;;;;;;4.95;84.87;96140.88;5019834;28;20225;-78
2024/02/21 05:26:04;;;;;;;14.03;4.00;;;;;;;4.98;84.34;96134.69;5019028;28;20189;-77
2024/02/21 05:28:30;;;;;;;9.97;4.10;;;;;;;5.01;84.43;96126.75;5015299;28;20183;-77
2024/02/21 05:30:55;;;;;;;8.70;3.97;;;;;;;5.00;84.14;96133.66;5003430;28;20580;-78
2024/02/21 05:33:23;;;;;;;6.83;4.00;;;;;;;4.99;84.56;96137.16;5009304;28;20203;-78
2024/02/21 05:35:49;;;;;;;10.70;3.80;;;;;;;4.92;84.91;96129.94;5018411;28;20269;-78
2024/02/21 05:38:14;;;;;;;10.13;4.00;;;;;;;4.87;85.03;96122.53;5016385;28;20728;-78
2024/02/21 05:40:40;;;;;;;8.13;3.10;;;;;;;4.94;84.46;96128.91;5006607;28;20599;-78
2024/02/21 05:43:07;;;;;;;7.43;3.10;;;;;;;4.96;84.53;96121.09;5023058;28;20778;-79
2024/02/21 05:45:32;;;;;;;9.80;3.30;;;;;;;4.80;84.86;96127.22;5019083;28;20178;-78
2024/02/21 05:47:57;;;;;;;7.23;3.50;;;;;;;4.83;85.38;96127.03;5019284;28;20324;-79
2024/02/21 05:50:23;;;;;;;12.87;3.43;;;;;;;4.88;85.13;96134.47;5023835;28;20587;-78
2024/02/21 05:52:51;;;;;;;7.13;2.90;;;;;;;4.81;85.12;96141.75;5017620;28;20186;-78
2024/02/21 05:55:16;;;;;;;10.17;4.30;;;;;;;4.69;85.38;96136.56;5023347;28;20191;-77
2024/02/21 05:57:42;;;;;;;8.67;3.80;;;;;;;4.71;85.08;96130.41;5024438;28;20193;-78
2024/02/21 06:00:07;;;;;;;13.13;5.63;;;;;;;4.71;84.87;96122.69;5017786;28;20317;-78
2024/02/21 06:02:33;;;;;;;9.77;4.10;;;;;;;4.77;84.69;96113.72;5016450;28;20195;-77
2024/02/21 06:04:58;;;;;;;8.10;3.57;;;;;;;4.58;85.14;96121.78;5020865;28;20202;-79
2024/02/21 06:07:23;;;;;;;9.30;3.90;;;;;;;4.59;85.00;96128.59;5021583;28;20237;-78
2024/02/21 06:09:49;;;;;;;7.73;3.47;;;;;;;4.54;85.84;96133.22;5017482;28;21272;-78
2024/02/21 06:12:14;;;;;;;10.07;3.40;;;;;;;4.58;85.50;96142.38;5005310;28;20195;-78
2024/02/21 06:14:39;;;;;;;11.20;3.70;;;;;;;4.54;85.73;96138.34;5003802;28;20215;-77
2024/02/21 06:17:05;;;;;;;12.23;3.83;;;;;;;4.53;85.34;96129.81;5021958;28;20657;-76
2024/02/21 06:19:30;;;;;;;11.37;4.23;;;;;;;4.49;85.52;96130.09;5020036;28;20186;-78
2024/02/21 06:21:55;;;;;;;10.03;4.00;;;;;;;4.44;85.91;96139.84;5019950;28;20205;-78
2024/02/21 06:24:21;;;;;;;11.17;4.10;;;;;;;4.54;85.47;96128.88;5019402;28;20210;-78
2024/02/21 06:26:46;;;;;;;10.43;4.03;;;;;;;4.52;85.43;96133.31;5006947;28;20803;-78
2024/02/21 06:29:13;;;;;;;9.00;4.23;;;;;;;4.63;85.00;96124.91;5016714;28;20215;-78
2024/02/21 06:31:39;;;;;;;10.27;3.40;;;;;;;4.63;85.18;96130.06;5018732;28;20212;-78
2024/02/21 06:34:05;;;;;;;13.80;4.13;;;;;;;4.57;84.87;96119.31;5010032;28;20204;-78
2024/02/21 06:36:30;;;;;;;9.03;3.70;;;;;;;4.68;84.35;96110.03;5007937;28;20190;-77
2024/02/21 06:38:55;;;;;;;7.73;3.70;;;;;;;4.71;84.75;96112.38;5010972;28;20183;-78
2024/02/21 06:41:21;;;;;;;9.40;3.57;;;;;;;4.71;84.68;96109.81;5000911;28;20699;-79
2024/02/21 06:43:47;;;;;;;6.67;3.03;;;;;;;4.81;83.88;96105.72;4997833;28;20672;-78
2024/02/21 06:46:12;;;;;;;5.53;3.00;;;;;;;4.69;84.12;96108.28;5006377;28;20559;-78
2024/02/21 06:48:37;;;;;;;8.43;3.60;;;;;;;4.87;83.58;96107.09;5019889;28;20183;-76
2024/02/21 06:51:03;;;;;;;6.73;3.60;;;;;;;5.04;82.97;96103.41;5017581;28;20207;-78
2024/02/21 06:53:29;;;;;;;7.10;2.90;;;;;;;4.99;83.50;96108.84;5020198;28;20213;-78
2024/02/21 06:55:54;;;;;;;11.23;3.33;;;;;;;5.05;82.68;96094.78;5022184;28;20186;-78
2024/02/21 06:58:19;;;;;;;6.60;3.00;;;;;;;5.04;82.60;96093.13;5004232;28;20190;-77
2024/02/21 07:00:45;;;;;;;7.33;3.23;;;;;;;5.11;82.58;96084.88;5016076;28;20174;-78
2024/02/21 07:03:10;;;;;;;9.40;3.10;;;;;;;5.15;82.40;96084.69;5016899;28;20214;-78
2024/02/21 07:05:35;;;;;;;8.43;3.63;;;;;;;5.10;82.61;96083.22;5004774;28;20260;-78
2024/02/21 07:08:01;;;;;;;8.07;3.23;;;;;;;4.92;82.66;96074.13;5014608;28;20737;-78
2024/02/21 07:10:28;;;;;;;5.30;3.27;;;;;;;5.06;82.75;96083.53;5019604;28;20609;-78
2024/02/21 07:12:54;;;;;;;5.97;2.90;;;;;;;5.22;82.19;96086.75;5018091;28;20301;-77
2024/02/21 07:15:19;;;;;;;7.93;2.97;;;;;;;5.34;81.78;96085.94;5018543;28;20285;-77
2024/02/21 07:17:45;;;;;;;5.50;3.10;;;;;;;5.36;81.69;96080.66;5015964;28;20197;-78
2024/02/21 07:20:10;;;;;;;6.80;2.70;;;;;;;5.65;80.30;96081.28;5018431;28;20189;-78
2024/02/21 07:22:35;;;;;;;5.93;2.77;;;;;;;5.79;80.09;96073.44;5017320;28;20197;-78
2024/02/21 07:25:01;;;;;;;7.47;3.40;;;;;;;5.89;79.82;96071.88;5018846;28;20230;-78
2024/02/21 07:27:30;;;;;;;8.10;3.07;;;;;;;5.74;80.27;96062.59;5003249;28;20684;-77
2024/02/21 07:29:55;;;;;;;9.00;3.33;;;;;;;5.65;80.30;96058.09;5008641;28;20202;-78
2024/02/21 07:32:21;;;;;;;6.37;3.10;;;;;;;5.69;79.30;96054.38;5017322;28;20248;-77
2024/02/21 07:34:46;;;;;;;8.23;3.33;;;;;;;5.71;79.08;96055.09;5017746;28;20218;-76
2024/02/21 07:37:11;;;;;;;9.57;3.10;;;;;;;5.56;79.45;96058.72;5016153;28;20183;-78
2024/02/21 07:39:37;;;;;;;13.43;3.13;;;;;;;5.80;79.20;96056.22;5008402;28;20203;-77
2024/02/21 07:42:02;;;;;;;8.60;2.77;;;;;;;5.49;79.23;96067.81;5016790;28;20268;-78
2024/02/21 07:44:28;;;;;;;9.83;2.77;;;;;;;5.45;80.23;96072.31;5015075;28;20218;-78
2024/02/21 07:46:53;;;;;;;7.37;2.87;;;;;;;5.58;79.50;96064.59;5019695;28;20201;-78
2024/02/21 07:49:18;;;;;;;8.67;2.90;;;;;;;5.76;79.52;96070.25;5005881;28;20189;-78
2024/02/21 07:51:44;;;;;;;7.63;3.03;;;;;;;5.85;79.08;96075.59;5017272;28;20265;-77
2024/02/21 07:54:09;;;;;;;8.27;3.10;;;;;;;5.86;78.97;96082.41;5004419;28;20353;-77
2024/02/21 07:56:34;;;;;;;6.93;3.00;;;;;;;5.93;78.79;96082.84;5004390;28;20568;-77
2024/02/21 07:59:00;;;;;;;11.40;3.00;;;;;;;6.29;77.91;96079.44;5014908;28;20191;-78
2024/02/21 08:01:25;;;;;;;7.83;2.77;;;;;;;6.20;78.00;96077.50;5021558;28;20707;-77
2024/02/21 08:03:50;;;;;;;7.47;2.77;;;;;;;6.29;77.33;96074.28;5014403;28;20203;-78
2024/02/21 08:06:16;;;;;;;7.93;3.27;;;;;;;6.49;77.00;96072.84;5001928;28;20198;-78
2024/02/21 08:08:41;;;;;;;9.53;2.67;;;;;;;6.54;76.23;96068.22;5003637;28;20183;-77
2024/02/21 08:11:06;;;;;;;5.70;2.70;;;;;;;6.44;75.87;96057.69;5007419;28;20217;-78
2024/02/21 08:13:31;;;;;;;7.87;3.27;;;;;;;6.49;75.58;96054.78;5021932;28;20221;-77
2024/02/21 08:15:57;;;;;;;7.77;3.20;;;;;;;6.64;74.79;96052.88;5019894;28;20663;-77
2024/02/21 08:18:22;;;;;;;6.50;2.30;;;;;;;6.60;74.08;96046.28;5016887;28;20186;-77
2024/02/21 08:20:48;;;;;;;5.73;2.13;;;;;;;6.94;73.17;96048.03;5007530;28;20174;-77
2024/02/21 08:23:15;;;;;;;5.20;2.50;;;;;;;7.12;71.80;96045.03;5020192;28;20286;-77
2024/02/21 08:25:41;;;;;;;5.53;2.60;;;;;;;7.39;71.39;96040.38;5019938;28;20617;-76
2024/02/21 08:28:07;;;;;;;6.23;2.53;;;;;;;7.47;70.85;96032.06;5020541;28;20183;-78
2024/02/21 08:30:32;;;;;;;8.53;2.53;;;;;;;7.69;70.76;96036.41;5022911;28;20203;-77
2024/02/21 08:32:58;;;;;;;4.67;1.93;;;;;;;7.63;70.69;96035.94;5018372;28;20269;-77
2024/02/21 08:35:23;;;;;;;7.03;1.77;;;;;;;7.65;70.77;96036.63;5022636;28;20194;-78
2024/02/21 08:37:49;;;;;;;7.90;2.37;;;;;;;7.59;70.35;96026.75;5018858;28;20531;-77
2024/02/21 08:40:17;;;;;;;6.97;2.40;;;;;;;7.93;70.01;96027.56;5016365;28;20791;-77
2024/02/21 08:42:42;;;;;;;5.90;2.30;;;;;;;7.87;69.90;96032.41;5027563;28;20190;-77
2024/02/21 08:45:08;;;;;;;8.77;2.30;;;;;;;7.98;70.04;96024.63;5019421;28;20178;-76
2024/02/21 08:47:35;;;;;;;6.23;2.00;;;;;;;8.07;69.52;96026.50;5021218;28;20213;-76
2024/02/21 08:50:01;;;;;;;6.37;2.47;;;;;;;7.97;69.58;96025.56;5003942;28;20190;-78
2024/02/21 08:52:26;;;;;;;5.33;2.20;;;;;;;8.18;69.25;96018.72;5002866;28;20194;-78
2024/02/21 08:54:53;;;;;;;3.80;2.07;;;;;;;8.20;68.51;96019.41;5008478;28;20249;-77
2024/02/21 08:57:18;;;;;;;5.07;2.60;;;;;;;8.09;68.93;96016.03;5023266;28;20220;-77
2024/02/21 08:59:44;;;;;;;9.27;2.77;;;;;;;7.81;69.43;96018.19;5003066;28;20183;-78
2024/02/21 09:02:09;;;;;;;3.93;2.13;;;;;;;8.07;68.67;96013.56;5017564;28;20267;-77
2024/02/21 09:04:34;;;;;;;9.03;2.40;;;;;;;7.98;68.95;96010.88;5021168;28;20751;-78
2024/02/21 09:07:00;;;;;;;10.03;2.80;;;;;;;8.34;68.28;96017.50;5002491;28;20198;-78
2024/02/21 09:09:25;;;;;;;8.50;2.47;;;;;;;8.40;68.59;96011.88;5019497;28;20655;-78
2024/02/21 09:11:51;;;;;;;5.33;2.13;;;;;;;8.51;68.67;96007.47;5018320;28;20238;-78
2024/02/21 09:14:17;;;;;;;6.10;2.20;;;;;;;8.45;68.09;96014.91;5001866;28;20207;-77
2024/02/21 09:16:43;;;;;;;5.00;1.90;;;;;;;8.46;67.64;96014.75;5019654;28;20214;-78
2024/02/21 09:19:10;;;;;;;5.17;1.67;;;;;;;8.51;67.54;96015.22;5001227;28;20249;-78
2024/02/21 09:21:37;;;;;;;14.70;3.27;;;;;;;8.78;66.94;96004.41;5020680;28;20190;-78
2024/02/21 09:24:02;;;;;;;7.57;2.00;;;;;;;8.82;66.79;96007.56;5026320;28;20210;-77
2024/02/21 09:26:28;;;;;;;5.83;2.00;;;;;;;8.60;65.56;96005.91;5023892;28;20195;-78
2024/02/21 09:28:53;;;;;;;8.70;2.60;;;;;;;8.83;65.95;95995.41;5018844;28;20565;-77
2024/02/21 09:31:19;;;;;;;9.00;2.20;;;;;;;8.74;65.06;95992.63;5005805;28;20261;-78
2024/02/21 09:33:45;;;;;;;6.37;2.10;;;;;;;9.07;64.13;95990.81;5017521;28;20289;-78
2024/02/21 09:36:10;;;;;;;5.23;1.60;;;;;;;8.92;64.16;95984.31;5018658;28;20197;-78
2024/02/21 09:38:35;;;;;;;4.30;1.90;;;;;;;9.27;63.51;95977.00;5019487;28;20686;-76
2024/02/21 09:41:25;;;;;;;4.80;2.53;;;;;;;9.65;63.35;95973.78;5020088;28;20229;-78
2024/02/21 09:43:53;;;;;;;5.60;2.07;;;;;;;9.46;63.13;95980.66;5014654;28;20214;-78
2024/02/21 09:46:19;;;;;;;5.70;2.00;;;;;;;9.47;62.41;95975.34;5021233;28;20179;-78
2024/02/21 09:48:57;;;;;;;6.70;2.30;;;;;;;9.74;62.17;95973.94;5005657;28;20712;-78
2024/02/21 09:51:23;;;;;;;5.43;1.63;;;;;;;10.01;61.09;95968.94;5020779;28;20805;-78
2024/02/21 09:53:49;;;;;;;7.70;2.00;;;;;;;10.41;60.48;95965.47;5019405;28;20206;-77
2024/02/21 09:56:15;;;;;;;3.73;1.70;;;;;;;10.00;60.16;95966.50;5019959;28;20294;-78
2024/02/21 09:58:41;;;;;;;6.83;1.63;;;;;;;10.10;60.44;95965.56;5017458;28;20790;-78
2024/02/21 10:01:06;;;;;;;8.33;3.33;;;;;;;10.36;58.61;95960.69;5016871;28;20187;-77
2024/02/21 10:03:35;;;;;;;7.73;2.57;;;;;;;10.33;57.24;95950.56;5018034;28;20586;-78
2024/02/21 10:06:01;;;;;;;18.23;12.00;;;;;;;10.66;56.92;95957.13;5020821;28;20182;-78
2024/02/21 10:08:26;;;;;;;9.30;5.40;;;;;;;10.83;57.81;95952.19;5019679;28;20835;-78
2024/02/21 10:10:55;;;;;;;7.80;3.27;;;;;;;10.80;58.27;95947.28;5017107;28;20222;-76
2024/02/21 10:13:30;;;;;;;5.10;2.03;;;;;;;11.15;56.24;95947.47;5021137;28;20261;-78
2024/02/21 10:16:06;;;;;;;4.50;2.00;;;;;;;11.20;56.37;95949.63;5021262;28;20570;-76
2024/02/21 10:18:32;;;;;;;8.43;2.73;;;;;;;11.21;54.74;95946.91;5012262;28;20652;-78
2024/02/21 10:21:05;;;;;;;3.97;1.50;;;;;;;10.37;55.07;95941.56;5019578;28;20236;-77
2024/02/21 10:23:50;;;;;;;5.83;1.90;;;;;;;10.71;54.87;95943.75;5018338;28;20214;-78
2024/02/21 10:26:17;;;;;;;3.00;1.40;;;;;;;10.36;55.01;95923.53;5019149;28;20265;-78
2024/02/21 10:28:44;;;;;;;2.57;1.80;;;;;;;10.99;54.83;95931.66;5015520;28;20187;-78
2024/02/21 10:31:11;;;;;;;3.67;1.73;;;;;;;11.22;52.80;95926.91;5022931;28;20211;-78
2024/02/21 10:33:37;;;;;;;4.40;1.70;;;;;;;11.34;54.85;95918.00;5020564;28;20230;-78
2024/02/21 10:36:10;;;;;;;9.23;2.73;;;;;;;11.30;55.24;95921.81;5008148;28;20186;-77
2024/02/21 10:38:38;;;;;;;4.53;2.10;;;;;;;11.24;53.46;95912.00;5020108;28;20186;-76
2024/02/21 10:41:07;;;;;;;4.53;2.10;;;;;;;11.07;53.61;95908.38;5019657;28;20340;-78
2024/02/21 10:43:42;;;;;;;7.10;2.43;;;;;;;11.39;54.01;95912.34;5015308;28;20207;-78
2024/02/21 10:46:12;;;;;;;4.00;1.63;;;;;;;11.42;54.27;95912.91;5022321;28;20566;-78
2024/02/21 10:48:47;;;;;;;6.23;2.03;;;;;;;11.46;52.68;95910.81;5018961;28;20262;-78
2024/02/21 10:51:23;;;;;;;7.63;2.63;;;;;;;11.55;53.53;95902.97;5005761;28;20202;-78
2024/02/21 10:54:06;;;;;;;7.90;2.60;;;;;;;11.66;54.56;95904.56;5000031;28;20210;-79
2024/02/21 10:56:36;;;;;;;7.70;2.50;;;;;;;11.89;54.75;95902.41;4997801;28;20194;-78
2024/02/21 10:59:06;;;;;;;7.70;2.20;;;;;;;11.94;53.83;95907.19;5018352;28;20199;-78
2024/02/21 11:01:31;;;;;;;4.77;1.97;;;;;;;12.13;53.63;95887.03;5018551;28;20190;-77
2024/02/21 11:03:59;;;;;;;4.67;1.87;;;;;;;12.09;53.34;95887.47;5017676;28;20735;-79
2024/02/21 11:06:25;;;;;;;3.87;2.10;;;;;;;12.09;53.62;95890.06;5018907;28;20183;-78
2024/02/21 11:09:29;;;;;;;6.03;1.93;;;;;;;12.24;54.58;95869.53;5020698;28;20190;-79
2024/02/21 11:11:56;;;;;;;5.63;1.90;;;;;;;12.24;53.87;95874.75;4975568;28;20252;-78
2024/02/21 11:14:21;;;;;;;7.07;3.17;;;;;;;12.35;54.25;95872.72;4993424;28;20349;-78
2024/02/21 11:16:47;;;;;;;4.00;1.90;;;;;;;12.31;53.56;95867.97;4998480;28;20290;-79
2024/02/21 11:19:23;;;;;;;5.27;1.77;;;;;;;12.27;54.26;95864.03;4978438;28;20191;-79
2024/02/21 11:21:49;;;;;;;8.97;1.80;;;;;;;12.34;53.28;95860.66;4993913;28;20227;-78
2024/02/21 11:24:26;;;;;;;3.60;1.53;;;;;;;12.22;53.42;95859.28;4978126;28;20301;-78
2024/02/21 11:26:51;;;;;;;6.00;1.80;;;;;;;12.45;53.36;95859.59;5010799;28;20195;-78
2024/02/21 11:29:23;;;;;;;4.73;1.83;;;;;;;12.62;53.49;95850.94;4978508;28;20743;-78
2024/02/21 11:31:49;;;;;;;3.90;2.00;;;;;;;12.43;52.46;95836.31;4994050;28;20298;-78
2024/02/21 11:34:18;;;;;;;6.73;2.27;;;;;;;12.37;53.21;95841.34;5011131;28;20762;-78